Ford, Kansas
Current Conditions -  °F | °C
As of 2:52 PM on Wednesday 26 Nov 2014 (Local Time) from KDDC Reporting Station
Clear Clear  
Wind Chill: 39°   Ceiling: Unl
Heat Index: 46°   Visibility: 10mi
Dew Point: 14°   Wind: 17mph
Humidity: 28%   Direction: 350°N
Pressure: 30.26"   Gusts: 25mph
Location:  37.64°N, 99.75°W
Report Text: KDDC 262052Z AUTO 35015G22KT 10SM CLR 08/M10 A3026 RMK AO2 SLP253 T00781100 53006
Loading
Personal Weather Stations






























Interactive Weather Map New forecast layout! Learn more

10-Day Weather Forecast

Advertisements
Track Severe Weather on mobile